Time;durP1;ratioP1;P1;durP2;ratioP2;P2;SDS_P1;SDS_P2;PMS_P1;PMS_P2;Temp;Humidity;BMP_temperature;BMP_pressure;BME280_temperature;BME280_humidity;BME280_pressure;Samples;Min_cycle;Max_cycle;Signal;HPM_P1;HPM_P2
2022/04/19 00:01:20;;;;;;;10.57;3.20;;;;;;;;;;10556437;28;20477;-73
2022/04/19 00:06:21;;;;;;;2.87;2.33;;;;;;;;;;10556598;28;20254;-71
2022/04/19 00:11:21;;;;;;;2.92;2.47;;;;;;;;;;10556116;28;20035;-73
2022/04/19 00:16:22;;;;;;;4.25;2.28;;;;;;;;;;10555286;28;20051;-74
2022/04/19 00:21:22;;;;;;;2.73;2.40;;;;;;;;;;10515912;28;20020;-74
2022/04/19 00:26:22;;;;;;;3.13;2.08;;;;;;;;;;10514269;28;20258;-72
2022/04/19 00:31:22;;;;;;;3.92;3.53;;;;;;;;;;10511863;28;20024;-75
2022/04/19 00:36:24;;;;;;;3.80;3.50;;;;;;;;;;10512585;28;20027;-71
2022/04/19 00:41:24;;;;;;;2.80;2.08;;;;;;;;;;10529621;28;20127;-71
2022/04/19 00:46:24;;;;;;;4.15;3.13;;;;;;;;;;10494564;28;20036;-72
2022/04/19 00:51:25;;;;;;;3.45;2.08;;;;;;;;;;10541464;28;20049;-70
2022/04/19 00:56:26;;;;;;;3.85;3.55;;;;;;;;;;10496706;28;20023;-74
2022/04/19 01:01:27;;;;;;;4.32;3.53;;;;;;;;;;10513044;28;20027;-71
2022/04/19 01:06:27;;;;;;;7.63;5.80;;;;;;;;;;10493825;28;20039;-71
2022/04/19 01:16:47;;;;;;;4.65;4.13;;;;;;;;;;10530458;28;20024;-71
2022/04/19 01:21:48;;;;;;;5.35;4.15;;;;;;;;;;10512187;28;20016;-71
2022/04/19 01:26:49;;;;;;;5.07;3.70;;;;;;;;;;10511161;28;20020;-70
2022/04/19 01:31:51;;;;;;;4.53;3.80;;;;;;;;;;10510901;28;20024;-72
2022/04/19 01:36:51;;;;;;;5.97;4.38;;;;;;;;;;10511283;28;20558;-70
2022/04/19 01:41:51;;;;;;;7.07;4.78;;;;;;;;;;10511100;28;20030;-70
2022/04/19 01:46:52;;;;;;;5.43;4.38;;;;;;;;;;10531006;28;20040;-72
2022/04/19 01:51:52;;;;;;;5.80;4.47;;;;;;;;;;10513166;28;20024;-72
2022/04/19 01:56:53;;;;;;;7.72;5.60;;;;;;;;;;10516036;28;20035;-72
2022/04/19 02:01:53;;;;;;;6.35;4.30;;;;;;;;;;10529347;28;20020;-72
2022/04/19 02:06:53;;;;;;;6.20;4.05;;;;;;;;;;10510562;28;20032;-73
2022/04/19 02:11:55;;;;;;;8.25;5.10;;;;;;;;;;10526757;28;20069;-75
2022/04/19 02:16:56;;;;;;;4.97;3.42;;;;;;;;;;10509376;28;20031;-71
2022/04/19 02:21:56;;;;;;;4.45;3.72;;;;;;;;;;10522772;28;20415;-72
2022/04/19 02:26:57;;;;;;;4.60;4.10;;;;;;;;;;10551003;28;20027;-71
2022/04/19 02:31:57;;;;;;;11.03;4.73;;;;;;;;;;10550018;28;20627;-73
2022/04/19 02:36:57;;;;;;;4.72;4.10;;;;;;;;;;10569368;28;20327;-72
2022/04/19 02:41:58;;;;;;;4.13;3.28;;;;;;;;;;10550880;28;20068;-73
2022/04/19 02:46:58;;;;;;;4.75;4.15;;;;;;;;;;10551319;28;20039;-75
2022/04/19 02:51:59;;;;;;;5.32;4.38;;;;;;;;;;10534296;28;20030;-75
2022/04/19 02:56:59;;;;;;;7.50;5.10;;;;;;;;;;10567692;28;20040;-70
2022/04/19 03:01:59;;;;;;;5.77;5.13;;;;;;;;;;10568726;28;20027;-71
2022/04/19 03:06:59;;;;;;;6.53;4.00;;;;;;;;;;10549576;28;20106;-74
2022/04/19 03:12:00;;;;;;;5.93;4.63;;;;;;;;;;10549551;28;20020;-71
2022/04/19 03:17:00;;;;;;;8.38;6.00;;;;;;;;;;10549852;28;20407;-71
2022/04/19 03:22:00;;;;;;;6.05;4.47;;;;;;;;;;10549394;28;20024;-74
2022/04/19 03:32:20;;;;;;;10.30;6.78;;;;;;;;;;10574509;28;20020;-71
2022/04/19 03:37:20;;;;;;;10.70;7.73;;;;;;;;;;10575655;28;20494;-74
2022/04/19 03:42:20;;;;;;;9.60;5.97;;;;;;;;;;10558025;28;20031;-72
2022/04/19 03:47:21;;;;;;;10.63;7.13;;;;;;;;;;10557174;28;20895;-72
2022/04/19 03:52:21;;;;;;;8.65;7.15;;;;;;;;;;10547754;28;20024;-72
2022/04/19 03:57:21;;;;;;;12.23;7.75;;;;;;;;;;10514033;28;20040;-73
2022/04/19 04:02:22;;;;;;;12.75;9.27;;;;;;;;;;10513851;28;20495;-72
2022/04/19 04:07:24;;;;;;;10.40;7.22;;;;;;;;;;10513514;28;20463;-71
2022/04/19 04:12:24;;;;;;;11.15;7.25;;;;;;;;;;10518002;28;20024;-72
2022/04/19 04:17:25;;;;;;;13.20;8.10;;;;;;;;;;10532068;28;20031;-78
2022/04/19 04:22:25;;;;;;;10.73;9.15;;;;;;;;;;10513568;28;20028;-73
2022/04/19 04:27:25;;;;;;;13.43;7.60;;;;;;;;;;10531458;28;20042;-78
2022/04/19 04:32:26;;;;;;;12.68;8.07;;;;;;;;;;10533635;28;20023;-72
2022/04/19 04:37:26;;;;;;;11.77;8.27;;;;;;;;;;10554895;28;20449;-72
2022/04/19 04:42:27;;;;;;;11.98;8.55;;;;;;;;;;10537967;28;20591;-74
2022/04/19 04:52:47;;;;;;;11.18;7.40;;;;;;;;;;10537498;28;20023;-75
2022/04/19 04:57:47;;;;;;;14.07;8.35;;;;;;;;;;10569571;28;20508;-72
2022/04/19 05:02:47;;;;;;;13.17;8.60;;;;;;;;;;10572156;28;20053;-72
2022/04/19 05:07:48;;;;;;;8.88;5.78;;;;;;;;;;10570955;28;20023;-72
2022/04/19 05:12:48;;;;;;;11.68;7.65;;;;;;;;;;10536794;28;20039;-72
2022/04/19 05:17:49;;;;;;;14.18;9.07;;;;;;;;;;10552952;28;20190;-77
2022/04/19 05:22:49;;;;;;;12.02;7.47;;;;;;;;;;10553066;28;20020;-73
2022/04/19 05:27:49;;;;;;;12.47;8.57;;;;;;;;;;10550671;28;20032;-74
2022/04/19 05:32:49;;;;;;;9.57;6.45;;;;;;;;;;10509758;28;20569;-72
2022/04/19 05:37:50;;;;;;;14.67;8.37;;;;;;;;;;10528223;28;20480;-71
2022/04/19 05:42:51;;;;;;;10.23;6.78;;;;;;;;;;10510747;28;20039;-76
2022/04/19 05:47:51;;;;;;;12.27;7.35;;;;;;;;;;10509948;28;20573;-72
2022/04/19 05:52:51;;;;;;;10.10;7.60;;;;;;;;;;10492832;28;20053;-74
2022/04/19 05:57:51;;;;;;;9.20;6.95;;;;;;;;;;10510726;28;20020;-74
2022/04/19 06:08:11;;;;;;;13.55;8.25;;;;;;;;;;10527652;28;20027;-72
2022/04/19 06:13:11;;;;;;;17.98;10.80;;;;;;;;;;10508525;28;20028;-72
2022/04/19 06:18:11;;;;;;;17.93;11.60;;;;;;;;;;10511097;28;20024;-72
2022/04/19 06:23:12;;;;;;;27.80;14.23;;;;;;;;;;10508857;28;20548;-71
2022/04/19 06:28:12;;;;;;;21.60;14.23;;;;;;;;;;10509309;28;20028;-76
2022/04/19 06:33:12;;;;;;;26.65;15.35;;;;;;;;;;10508906;28;20030;-75
2022/04/19 06:38:12;;;;;;;18.10;11.02;;;;;;;;;;10508780;28;20031;-71
2022/04/19 06:43:13;;;;;;;24.23;10.50;;;;;;;;;;10528722;28;20027;-72
2022/04/19 06:48:13;;;;;;;21.43;13.53;;;;;;;;;;10527849;28;20028;-71
2022/04/19 06:53:13;;;;;;;22.35;11.82;;;;;;;;;;10546162;28;20038;-73
2022/04/19 06:58:14;;;;;;;23.07;12.27;;;;;;;;;;10527661;28;20036;-72
2022/04/19 07:03:14;;;;;;;22.13;12.60;;;;;;;;;;10547543;28;20035;-72
2022/04/19 07:08:14;;;;;;;18.63;10.57;;;;;;;;;;10538523;28;20038;-70
2022/04/19 07:13:15;;;;;;;19.57;12.23;;;;;;;;;;10536546;28;20036;-69
2022/04/19 07:18:17;;;;;;;15.30;8.67;;;;;;;;;;10557136;28;20039;-71
2022/04/19 07:28:36;;;;;;;12.25;9.05;;;;;;;;;;10556136;28;20071;-71
2022/04/19 07:33:38;;;;;;;9.50;6.15;;;;;;;;;;10534687;28;20032;-71
2022/04/19 07:38:38;;;;;;;9.00;7.35;;;;;;;;;;10534481;28;20046;-72
2022/04/19 07:43:38;;;;;;;12.25;5.50;;;;;;;;;;10534912;28;20050;-72
2022/04/19 07:48:39;;;;;;;9.25;5.43;;;;;;;;;;10536550;28;20027;-72
2022/04/19 07:53:39;;;;;;;8.03;5.53;;;;;;;;;;10536386;28;20023;-75
2022/04/19 07:58:39;;;;;;;6.63;5.38;;;;;;;;;;10555270;28;20089;-71
2022/04/19 08:03:40;;;;;;;14.23;8.40;;;;;;;;;;10535889;28;20024;-72
2022/04/19 08:08:43;;;;;;;23.45;13.60;;;;;;;;;;10552242;28;20818;-73
2022/04/19 08:13:43;;;;;;;10.48;6.03;;;;;;;;;;10533676;28;20115;-71
2022/04/19 08:18:43;;;;;;;9.90;5.90;;;;;;;;;;10532340;28;20046;-73
2022/04/19 08:23:44;;;;;;;5.85;4.20;;;;;;;;;;10534613;28;20481;-72
2022/04/19 08:28:44;;;;;;;5.70;4.23;;;;;;;;;;10514857;28;20499;-75
2022/04/19 08:33:44;;;;;;;5.97;3.67;;;;;;;;;;10532703;28;20020;-71
2022/04/19 08:38:46;;;;;;;6.37;4.33;;;;;;;;;;10517833;28;20399;-72
2022/04/19 08:43:47;;;;;;;6.72;3.53;;;;;;;;;;10511942;28;20113;-71
2022/04/19 08:48:47;;;;;;;8.90;3.90;;;;;;;;;;10532553;28;20080;-70
2022/04/19 08:59:06;;;;;;;3.60;2.20;;;;;;;;;;10548891;28;20831;-73
2022/04/19 09:04:07;;;;;;;6.05;3.63;;;;;;;;;;10531532;28;20028;-72
2022/04/19 09:09:10;;;;;;;9.87;3.27;;;;;;;;;;10547844;28;20030;-73
2022/04/19 09:14:10;;;;;;;3.42;2.95;;;;;;;;;;10549205;28;20281;-72
2022/04/19 09:19:27;;;;;;;3.90;2.60;;;;;;;;;;10545636;28;20039;-73
2022/04/19 09:24:27;;;;;;;9.85;3.42;;;;;;;;;;10528683;28;20505;-70
2022/04/19 09:29:28;;;;;;;4.80;3.28;;;;;;;;;;10528404;28;20028;-72
2022/04/19 09:34:29;;;;;;;4.17;3.70;;;;;;;;;;10529655;28;20165;-70
2022/04/19 09:39:30;;;;;;;6.50;4.13;;;;;;;;;;10525121;28;20158;-70
2022/04/19 09:44:35;;;;;;;9.40;4.40;;;;;;;;;;10530341;28;20045;-72
2022/04/19 09:49:48;;;;;;;5.30;4.28;;;;;;;;;;10528349;28;20020;-72
2022/04/19 09:55:03;;;;;;;3.83;2.88;;;;;;;;;;10545464;28;20538;-74
2022/04/19 10:00:05;;;;;;;9.32;4.18;;;;;;;;;;10543964;28;20089;-71
2022/04/19 10:10:24;;;;;;;5.40;3.50;;;;;;;;;;10570140;28;20032;-72
2022/04/19 10:15:25;;;;;;;8.57;3.93;;;;;;;;;;10551770;28;20027;-76
2022/04/19 10:20:31;;;;;;;5.43;3.33;;;;;;;;;;10551032;28;20072;-73
2022/04/19 10:25:46;;;;;;;6.93;3.22;;;;;;;;;;10525725;28;20438;-71
2022/04/19 10:30:48;;;;;;;8.43;2.90;;;;;;;;;;10509055;28;20498;-74
2022/04/19 10:36:18;;;;;;;8.23;3.03;;;;;;;;;;10513554;28;20081;-72
2022/04/19 10:41:39;;;;;;;6.22;2.20;;;;;;;;;;10495654;28;20039;-73
2022/04/19 10:46:39;;;;;;;3.92;2.50;;;;;;;;;;10509033;28;20040;-70
2022/04/19 10:51:39;;;;;;;9.77;2.63;;;;;;;;;;10526637;28;20249;-71
2022/04/19 10:57:09;;;;;;;6.40;3.22;;;;;;;;;;10526816;28;20357;-71
2022/04/19 11:02:29;;;;;;;4.70;3.55;;;;;;;;;;10477293;28;20530;-72
2022/04/19 11:07:40;;;;;;;4.43;2.50;;;;;;;;;;10508375;28;20091;-73
2022/04/19 11:12:58;;;;;;;3.38;2.63;;;;;;;;;;10509019;28;20387;-71
2022/04/19 11:18:17;;;;;;;5.23;3.63;;;;;;;;;;10492951;28;20017;-72
2022/04/19 11:23:28;;;;;;;3.30;2.65;;;;;;;;;;10513000;28;20675;-69
2022/04/19 11:28:30;;;;;;;3.00;2.60;;;;;;;;;;10508496;28;20017;-75
2022/04/19 11:33:31;;;;;;;4.15;3.00;;;;;;;;;;10508104;28;20023;-72
2022/04/19 11:38:33;;;;;;;7.45;3.60;;;;;;;;;;10507758;28;20020;-71
2022/04/19 11:48:57;;;;;;;2.83;2.28;;;;;;;;;;10525849;28;20445;-75
2022/04/19 11:53:57;;;;;;;3.72;3.15;;;;;;;;;;10513871;28;20020;-75
2022/04/19 11:59:00;;;;;;;5.07;3.38;;;;;;;;;;10514746;28;20111;-73
2022/04/19 12:04:08;;;;;;;7.18;3.33;;;;;;;;;;10498337;28;20020;-70
2022/04/19 12:09:12;;;;;;;5.70;2.47;;;;;;;;;;10532644;28;20028;-71
2022/04/19 12:14:32;;;;;;;6.32;3.15;;;;;;;;;;10514551;28;20031;-73
2022/04/19 12:19:34;;;;;;;4.72;3.08;;;;;;;;;;10532103;28;20043;-70
2022/04/19 12:24:34;;;;;;;3.10;2.58;;;;;;;;;;10513856;28;20050;-72
2022/04/19 12:29:35;;;;;;;5.90;2.72;;;;;;;;;;10497391;28;20151;-71
2022/04/19 12:34:39;;;;;;;5.15;3.03;;;;;;;;;;10512987;28;20663;-72
2022/04/19 12:39:40;;;;;;;2.63;2.17;;;;;;;;;;10512921;28;20027;-72
2022/04/19 12:45:01;;;;;;;2.92;1.95;;;;;;;;;;10512477;28;20054;-71
2022/04/19 12:50:11;;;;;;;2.72;2.50;;;;;;;;;;10513050;28;20050;-71
2022/04/19 12:55:11;;;;;;;3.78;2.80;;;;;;;;;;10495286;28;20032;-73
2022/04/19 13:00:12;;;;;;;3.27;2.30;;;;;;;;;;10495772;28;20422;-73
2022/04/19 13:05:12;;;;;;;3.40;2.50;;;;;;;;;;10544012;28;20257;-73
2022/04/19 13:12:17;;;;;;;3.28;2.00;;;;;;;;;;10553927;28;20750;-72
2022/04/19 13:15:41;;;;;;;3.97;2.17;;;;;;;;;;10547237;28;20099;-71
2022/04/19 13:20:42;;;;;;;5.28;2.47;;;;;;;;;;10552750;28;20493;-70
2022/04/19 13:25:43;;;;;;;2.53;2.05;;;;;;;;;;10551751;28;20027;-72
2022/04/19 13:30:43;;;;;;;3.88;3.50;;;;;;;;;;10571869;28;20071;-71
2022/04/19 13:35:43;;;;;;;4.25;2.95;;;;;;;;;;10552640;28;20507;-74
2022/04/19 13:40:44;;;;;;;5.13;4.18;;;;;;;;;;10552044;28;20406;-74
2022/04/19 13:45:44;;;;;;;3.75;2.92;;;;;;;;;;10552055;28;20043;-74
2022/04/19 13:50:45;;;;;;;5.30;3.00;;;;;;;;;;10570311;28;20057;-74
2022/04/19 13:55:45;;;;;;;12.05;3.70;;;;;;;;;;10569566;28;20261;-75
2022/04/19 14:00:46;;;;;;;5.72;3.97;;;;;;;;;;10568454;28;20475;-76
2022/04/19 14:05:46;;;;;;;3.35;3.05;;;;;;;;;;10550854;28;20023;-73
2022/04/19 14:10:47;;;;;;;5.18;3.17;;;;;;;;;;10534172;28;20034;-72
2022/04/19 14:15:47;;;;;;;5.25;3.08;;;;;;;;;;10549814;28;20023;-71
2022/04/19 14:20:48;;;;;;;4.43;2.43;;;;;;;;;;10569014;28;20126;-71
2022/04/19 14:25:49;;;;;;;5.38;2.53;;;;;;;;;;10550624;28;20288;-72
2022/04/19 14:36:08;;;;;;;5.28;2.78;;;;;;;;;;10568222;28;20261;-71
2022/04/19 14:41:08;;;;;;;3.58;2.50;;;;;;;;;;10550881;28;20023;-70
2022/04/19 14:46:08;;;;;;;4.70;3.03;;;;;;;;;;10541223;28;20044;-70
2022/04/19 14:56:28;;;;;;;4.20;3.15;;;;;;;;;;10549091;28;20108;-72
2022/04/19 15:01:28;;;;;;;5.40;3.40;;;;;;;;;;10531329;28;20542;-71
2022/04/19 15:06:28;;;;;;;5.90;3.40;;;;;;;;;;10532522;28;20032;-73
2022/04/19 15:11:29;;;;;;;7.30;3.83;;;;;;;;;;10519019;28;20031;-77
2022/04/19 15:16:29;;;;;;;8.90;3.50;;;;;;;;;;10527656;28;20028;-71
2022/04/19 15:21:29;;;;;;;4.55;2.80;;;;;;;;;;10528368;28;20128;-72
2022/04/19 15:26:30;;;;;;;6.53;4.27;;;;;;;;;;10533213;28;20023;-70
2022/04/19 15:31:30;;;;;;;8.98;4.82;;;;;;;;;;10532835;28;20026;-72
2022/04/19 15:36:33;;;;;;;12.90;3.73;;;;;;;;;;10538138;28;20037;-71
2022/04/19 15:41:33;;;;;;;7.43;3.47;;;;;;;;;;10535097;28;20024;-71
2022/04/19 15:46:34;;;;;;;6.30;3.38;;;;;;;;;;10554983;28;20044;-76
2022/04/19 15:51:34;;;;;;;11.87;3.17;;;;;;;;;;10555112;28;20024;-73
2022/04/19 15:56:35;;;;;;;6.07;2.95;;;;;;;;;;10554635;28;20084;-72
2022/04/19 16:01:36;;;;;;;4.60;3.10;;;;;;;;;;10548240;28;20603;-70
2022/04/19 16:06:36;;;;;;;8.63;3.23;;;;;;;;;;10534465;28;20023;-72
2022/04/19 16:11:36;;;;;;;6.20;2.63;;;;;;;;;;10554797;28;20037;-70
2022/04/19 16:27:25;;;;;;;;;;;;;;;;;;10555133;28;20491;-70
2022/04/19 16:32:25;;;;;;;4.20;2.72;;;;;;;;;;10533552;28;19908;-72
2022/04/19 16:37:27;;;;;;;6.05;2.85;;;;;;;;;;10534413;28;20123;-69
2022/04/19 16:42:28;;;;;;;3.78;2.72;;;;;;;;;;10553674;28;20034;-71
2022/04/19 16:47:28;;;;;;;9.00;3.43;;;;;;;;;;10551157;28;20042;-77
2022/04/19 16:52:28;;;;;;;4.13;2.77;;;;;;;;;;10535444;28;20062;-71
2022/04/19 16:57:31;;;;;;;11.67;3.90;;;;;;;;;;10549471;28;20020;-71
2022/04/19 17:02:31;;;;;;;5.40;3.70;;;;;;;;;;10533908;28;20568;-74
2022/04/19 17:07:31;;;;;;;6.25;3.67;;;;;;;;;;10535678;28;20020;-73
2022/04/19 17:12:32;;;;;;;9.00;3.60;;;;;;;;;;10532694;28;20131;-72
2022/04/19 17:17:33;;;;;;;16.00;4.20;;;;;;;;;;10531831;28;20032;-72
2022/04/19 17:22:33;;;;;;;6.05;3.80;;;;;;;;;;10536601;28;20031;-69
2022/04/19 17:27:33;;;;;;;4.30;3.47;;;;;;;;;;10543316;28;20053;-72
2022/04/19 17:32:34;;;;;;;4.57;3.97;;;;;;;;;;10534804;28;20016;-73
2022/04/19 17:37:35;;;;;;;12.10;3.92;;;;;;;;;;10516849;28;20396;-71
2022/04/19 17:42:35;;;;;;;4.97;4.20;;;;;;;;;;10544577;28;20115;-70
2022/04/19 17:47:35;;;;;;;8.85;5.13;;;;;;;;;;10527402;28;20407;-73
2022/04/19 17:57:55;;;;;;;7.53;4.70;;;;;;;;;;10543795;28;20107;-70
2022/04/19 18:02:57;;;;;;;9.07;5.93;;;;;;;;;;10522555;28;20028;-70
2022/04/19 18:07:57;;;;;;;10.43;5.80;;;;;;;;;;10544052;28;20069;-73
2022/04/19 18:12:57;;;;;;;9.95;6.10;;;;;;;;;;10531057;28;20028;-71
2022/04/19 18:18:00;;;;;;;11.45;7.03;;;;;;;;;;10523596;28;20039;-74
2022/04/19 18:28:19;;;;;;;18.48;8.35;;;;;;;;;;10546569;28;20020;-73
2022/04/19 18:33:19;;;;;;;21.50;9.10;;;;;;;;;;10522765;28;20607;-73
2022/04/19 18:38:20;;;;;;;27.43;9.30;;;;;;;;;;10528545;28;20055;-72
2022/04/19 18:43:20;;;;;;;13.82;8.35;;;;;;;;;;10514476;28;20076;-73
2022/04/19 18:48:20;;;;;;;15.97;9.67;;;;;;;;;;10529906;28;20511;-72
2022/04/19 18:53:21;;;;;;;14.40;9.02;;;;;;;;;;10513996;28;20381;-71
2022/04/19 18:58:21;;;;;;;22.55;12.13;;;;;;;;;;10530219;28;20608;-71
2022/04/19 19:03:21;;;;;;;19.20;12.45;;;;;;;;;;10524453;28;20635;-71
2022/04/19 19:08:22;;;;;;;22.43;12.87;;;;;;;;;;10516349;28;20085;-70
2022/04/19 19:13:22;;;;;;;19.83;11.65;;;;;;;;;;10519223;28;20539;-71
2022/04/19 19:18:22;;;;;;;20.02;9.75;;;;;;;;;;10515059;28;20024;-74
2022/04/19 19:23:22;;;;;;;18.13;9.33;;;;;;;;;;10499347;28;20480;-72
2022/04/19 19:28:23;;;;;;;14.95;8.95;;;;;;;;;;10523028;28;20601;-72
2022/04/19 19:33:23;;;;;;;13.60;7.70;;;;;;;;;;10521871;28;20021;-74
2022/04/19 19:38:23;;;;;;;19.10;8.73;;;;;;;;;;10515135;28;20028;-70
2022/04/19 19:43:24;;;;;;;12.82;8.02;;;;;;;;;;10516638;28;20803;-71
2022/04/19 19:48:24;;;;;;;10.73;7.85;;;;;;;;;;10514390;28;20587;-71
2022/04/19 19:53:24;;;;;;;16.10;7.00;;;;;;;;;;10534291;28;20491;-72
2022/04/19 19:58:25;;;;;;;15.43;9.90;;;;;;;;;;10518481;28;20423;-69
2022/04/19 20:03:25;;;;;;;14.35;8.23;;;;;;;;;;10522827;28;20039;-70
2022/04/19 20:08:25;;;;;;;13.75;8.55;;;;;;;;;;10505118;28;20035;-70
2022/04/19 20:13:26;;;;;;;13.07;8.45;;;;;;;;;;10524966;28;20024;-70
2022/04/19 20:18:26;;;;;;;10.77;7.60;;;;;;;;;;10518718;28;20107;-71
2022/04/19 20:23:26;;;;;;;11.98;7.70;;;;;;;;;;10520069;28;20119;-70
2022/04/19 20:28:27;;;;;;;10.87;7.13;;;;;;;;;;10517743;28;20024;-70
2022/04/19 20:33:27;;;;;;;10.38;7.55;;;;;;;;;;10521307;28;20111;-73
2022/04/19 20:38:27;;;;;;;13.15;8.20;;;;;;;;;;10516794;28;20020;-69
2022/04/19 20:43:27;;;;;;;9.63;6.68;;;;;;;;;;10513265;28;20563;-69
2022/04/19 20:53:50;;;;;;;13.25;8.98;;;;;;;;;;10556713;28;20069;-70
2022/04/19 20:58:51;;;;;;;12.77;7.82;;;;;;;;;;10524499;28;20520;-70
2022/04/19 21:03:51;;;;;;;14.57;8.70;;;;;;;;;;10552634;28;20080;-72
2022/04/19 21:08:51;;;;;;;12.23;7.63;;;;;;;;;;10529117;28;20031;-70
2022/04/19 21:13:52;;;;;;;11.10;8.90;;;;;;;;;;10533524;28;20089;-69
2022/04/19 21:18:53;;;;;;;11.57;8.32;;;;;;;;;;10541390;28;20036;-69
2022/04/19 21:23:53;;;;;;;19.10;8.87;;;;;;;;;;10531194;28;20042;-74
2022/04/19 21:28:53;;;;;;;12.17;9.07;;;;;;;;;;10530804;28;20045;-71
2022/04/19 21:33:53;;;;;;;11.00;9.17;;;;;;;;;;10530976;28;20035;-70
2022/04/19 21:38:54;;;;;;;16.60;9.07;;;;;;;;;;10523477;28;20044;-72
2022/04/19 21:43:54;;;;;;;13.67;9.10;;;;;;;;;;10533138;28;20051;-71
2022/04/19 21:48:54;;;;;;;14.63;9.25;;;;;;;;;;10552809;28;20623;-70
2022/04/19 21:53:55;;;;;;;16.23;9.45;;;;;;;;;;10530911;28;20035;-73
2022/04/19 21:58:55;;;;;;;14.95;8.70;;;;;;;;;;10534765;28;20130;-71
2022/04/19 22:03:57;;;;;;;10.35;8.45;;;;;;;;;;10527361;28;20039;-72
2022/04/19 22:08:57;;;;;;;14.20;8.32;;;;;;;;;;10549517;28;20461;-71
2022/04/19 22:13:57;;;;;;;11.65;7.72;;;;;;;;;;10514298;28;20257;-78
2022/04/19 22:18:58;;;;;;;11.63;7.50;;;;;;;;;;10508553;28;20027;-71
2022/04/19 22:23:58;;;;;;;9.33;7.67;;;;;;;;;;10526740;28;21268;-74
2022/04/19 22:28:58;;;;;;;11.70;8.82;;;;;;;;;;10508076;28;20542;-74
2022/04/19 22:33:58;;;;;;;16.15;9.48;;;;;;;;;;10507371;28;20048;-71
2022/04/19 22:38:59;;;;;;;10.73;8.50;;;;;;;;;;10528041;28;20096;-71
2022/04/19 22:43:59;;;;;;;14.63;9.97;;;;;;;;;;10525895;28;20047;-74
2022/04/19 22:48:59;;;;;;;11.30;7.28;;;;;;;;;;10509433;28;20047;-70
2022/04/19 22:54:00;;;;;;;11.57;8.23;;;;;;;;;;10527606;28;20498;-71
2022/04/19 22:59:00;;;;;;;13.80;8.03;;;;;;;;;;10508559;28;20498;-72
2022/04/19 23:04:00;;;;;;;13.60;7.68;;;;;;;;;;10508948;28;20299;-72
2022/04/19 23:09:01;;;;;;;12.85;8.82;;;;;;;;;;10508907;28;20039;-71
2022/04/19 23:14:01;;;;;;;12.15;8.25;;;;;;;;;;10508753;28;20028;-70
2022/04/19 23:19:01;;;;;;;14.77;8.93;;;;;;;;;;10508940;28;20024;-71
2022/04/19 23:24:02;;;;;;;12.70;8.65;;;;;;;;;;10508400;28;20792;-71
2022/04/19 23:29:02;;;;;;;12.18;8.82;;;;;;;;;;10526275;28;20089;-75
2022/04/19 23:34:03;;;;;;;11.75;8.45;;;;;;;;;;10508530;28;20032;-77
2022/04/19 23:39:03;;;;;;;12.53;7.63;;;;;;;;;;10508457;28;20055;-72
2022/04/19 23:44:03;;;;;;;13.40;9.53;;;;;;;;;;10507973;28;20301;-74
2022/04/19 23:49:04;;;;;;;19.02;11.02;;;;;;;;;;10515380;28;20274;-70
2022/04/19 23:54:04;;;;;;;16.55;10.30;;;;;;;;;;10499250;28;20047;-75
2022/04/19 23:59:04;;;;;;;17.33;10.43;;;;;;;;;;10516024;28;20074;-77
